AirNav   ProFlight Series 2 Aviation Headset
 
 569 users online  

FL70 WFLA-TV 8 Heliport
Tampa, Florida, USA

GOING TO TAMPA?


FAA INFORMATION EFFECTIVE 16 JULY 2020

Location

FAA Identifier: FL70
Lat/Long: 27-56-38.0000N 082-27-42.0000W
27-56.633333N 082-27.700000W
27.9438889,-82.4616667
(estimated)
Elevation: 60 ft. / 18 m (estimated)
Variation: 04W (2000)
Time zone: UTC -4 (UTC -5 during Standard Time)
Zip code: 33606

Heliport Operations

Heliport use: Private use. Permission required prior to landing
Activation date: 02/2001
Control tower: no
ARTCC: MIAMI CENTER
FSS: SAINT PETERSBURG FLIGHT SERVICE STATION
Attendance: UNATNDD
Wind indicator: yes
Segmented circle: no

Heliport Communications

WX AWOS-3 at TPF (1.8 nm S): 118.925 (813-251-6824)
WX ASOS at TPA (4 nm NW): PHONE 813-873-7228
WX AWOS-3 at VDF (7 nm NE): 121.125 (813-630-0924)
WX ASOS at PIE (12 nm W): PHONE 727-531-3456
WX ASOS at SPG (14 nm SW): 118.875 (727-821-4334)
WX AWOS-3P at CLW (16 nm W): 119.225 (727-449-2184)
WX AWOS-3 at PCM (16 nm E): 120.025 (813-764-8259)

Nearby radio navigation aids

VOR radial/distance  VOR name  Freq  Var
PIEr085/12.0ST PETERSBURG VORTAC116.4005W
LALr263/23.9LAKELAND VORTAC116.0001E
SRQr015/32.7SARASOTA VOR/DME117.0005W

 
NDB name  Hdg/Dist  Freq  Var  ID
COSME163/9.136805WTP - .--.
CAPOK109/13.236005WPI .--. ..

Heliport Services

Runway Information

Helipad H1

Dimensions: 36 x 36 ft. / 11 x 11 m
Surface: concrete
Traffic pattern: leftleft

Heliport Ownership and Management from official FAA records

Ownership: Privately-owned
Owner: NEXSTAR BROADCASTING, INC
200 S PARKER ST
TAMPA, FL 33606
Phone (813) 228-8888
Manager: JIM BROWN
WFLA-TV 8, P.O. BOX 1410
TAMPA, FL 33602
Phone (813) 225-2709

Additional Remarks

FOR CD CTC TAMPA APCH AT 813-878-2528

Instrument Procedures

There are no published instrument procedures at FL70.

Some nearby airports with instrument procedures:

KTPF - Peter O Knight Airport (2 nm S)
KTPA - Tampa International Airport (4 nm NW)
KMCF - MacDill Air Force Base (6 nm SW)
KVDF - Tampa Executive Airport (7 nm NE)
KPIE - St Pete-Clearwater International Airport (12 nm W)
KSPG - Albert Whitted Airport (14 nm SW)
KCLW - Clearwater Air Park (16 nm W)
KPCM - Plant City Airport (16 nm E)
 
Loc | Ops | Rwys | IFR | FBO | Links
Com | Nav | Svcs | Stats | Notes


 
Area around FL70 (WFLA-TV 8 Heliport)
 
Road maps at: MapQuest Bing Google
 
Aerial photo
No photo
 
Sectional chart

 
Airport distance calculator
Flying to WFLA-TV 8 Heliport? Find the distance to fly.

From to FL70

Sunrise and sunset
Times for 10-Aug-2020
 Local
(UTC-4)
 Zulu
(UTC)
Morning civil twilight06:3410:34
Sunrise06:5910:59
Sunset20:1100:11
Evening civil twilight20:3600:36

Current date and time
Zulu (UTC)  10-Aug-2020 11:18:02
Local (UTC-4)  10-Aug-2020 07:18:02
 
METAR
KTPF 
2nm S 
101055Z AUTO 06005KT 10SM OVC110 25/25 A3011 RMK AO2
KTPA 
4nm W 
101053Z 00000KT 10SM FEW180 FEW300 26/22 A3011 RMK AO2 SLP194 T02560217
KMCF 
6nm SW 
101056Z AUTO 05005KT 10SM CLR 24/23 A3009 RMK AO2 SLP192 T02410227 FZRANO $
KVDF 
7nm NE 
101055Z AUTO 00000KT 7SM CLR 22/22 A3012 RMK AO2
KPIE 
12nm W 
101053Z 00000KT 10SM CLR 26/24 A3009 RMK AO2 SLP190 T02560244
KSPG 
14nm SW 
101053Z 11004KT 10SM CLR 27/25 A3008 RMK AO2 SLP185 T02720250
KCLW 
16nm W 
101055Z AUTO 00000KT 10SM CLR 25/23 A3009 RMK AO2
KPCM 
16nm E 
101055Z AUTO 00000KT 10SM CLR 23/23 A3013 RMK AO2
TAF
KTPA 
4nm W 
100834Z 1009/1112 VRB03KT P6SM SCT250 FM101700 26006KT P6SM VCTS SCT030CB BKN250 FM110200 32006KT P6SM FEW030 BKN250 FM110500 VRB04KT P6SM FEW060
KMCF 
6nm SW 
091700Z 0917/1023 VRB06KT 9999 SCT035 QNH3013INS BECMG 0918/0919 27009KT 9999 VCTS SCT035CB QNH3010INS TEMPO 0919/1002 VRB10G20KT 6000 TSRA BKN030CB BECMG 1003/1004 VRB06KT 9000 -SHRA FEW020 BKN050 QNH3008INS BECMG 1008/1009 VRB06KT 9999 NSW FEW020 SCT050 QNH3006INS BECMG 1018/1019 26009KT 9999 VCTS SCT050CB SCT100 QNH2998INS TEMPO 1019/1023 VRB10G20KT 8000 TSRA SCT050CB SCT100 TX34/0919Z TN26/1008Z
KPIE 
12nm W 
100531Z 1006/1106 VRB03KT P6SM BKN200 FM101700 05006KT P6SM VCTS SCT030CB BKN250 FM102300 01005KT P6SM FEW030 BKN250
NOTAMs
Click for the latest NOTAMs
NOTAMs are issued by the DoD/FAA and will open in a separate window not controlled by AirNav.

 

 
 

Would you like to see your business listed on this page?

 If your business provides an interesting product or service to pilots, flight crews, aircraft, or users of the WFLA-TV 8 Heliport, you should consider listing it here.  To start the listing process, click on the button below
 
Add a business
 

Other Pages about WFLA-TV 8 Heliport

Update a link
 
Copyright © AirNav, LLC. All rights reserved. Privacy Policy  Contact